Time;durP1;ratioP1;P1;durP2;ratioP2;P2;SDS_P1;SDS_P2;PMS_P1;PMS_P2;Temp;Humidity;BMP_temperature;BMP_pressure;BME280_temperature;BME280_humidity;BME280_pressure;Samples;Min_cycle;Max_cycle;Signal;HPM_P1;HPM_P2
2023/09/05 00:02:18;;;;;;;0.77;0.77;;;;;;;;;;4877951;29;20228;-80
2023/09/05 00:04:46;;;;;;;0.30;0.30;;;;;;;;;;4878520;29;20782;-80
2023/09/05 00:07:13;;;;;;;0.37;0.37;;;;;;;;;;4881514;29;20285;-80
2023/09/05 00:09:40;;;;;;;0.50;0.50;;;;;;;;;;4896680;29;20617;-79
2023/09/05 00:12:07;;;;;;;0.40;0.40;;;;;;;;;;4897293;29;20236;-80
2023/09/05 00:14:35;;;;;;;0.53;0.53;;;;;;;;;;4897550;29;20232;-81
2023/09/05 00:17:04;;;;;;;0.50;0.43;;;;;;;;;;4896005;29;20277;-80
2023/09/05 00:19:32;;;;;;;0.70;0.70;;;;;;;;;;4896403;29;20216;-80
2023/09/05 00:21:59;;;;;;;0.47;0.47;;;;;;;;;;4897263;29;20570;-80
2023/09/05 00:24:31;;;;;;;0.87;0.53;;;;;;;;;;4896413;29;20204;-79
2023/09/05 00:26:59;;;;;;;0.40;0.40;;;;;;;;;;4896297;29;20200;-82
2023/09/05 00:29:27;;;;;;;0.10;0.10;;;;;;;;;;4895892;29;20291;-80
2023/09/05 00:31:58;;;;;;;0.30;0.30;;;;;;;;;;4895681;29;20255;-81
2023/09/05 00:34:27;;;;;;;0.27;0.27;;;;;;;;;;4895972;29;20208;-81
2023/09/05 00:36:58;;;;;;;0.37;0.37;;;;;;;;;;4895937;29;20209;-80
2023/09/05 00:39:27;;;;;;;0.50;0.50;;;;;;;;;;4896543;29;20598;-81
2023/09/05 00:41:56;;;;;;;3.10;0.40;;;;;;;;;;4896317;29;20228;-80
2023/09/05 00:44:23;;;;;;;0.47;0.47;;;;;;;;;;4894762;29;20209;-80
2023/09/05 00:46:51;;;;;;;0.70;0.70;;;;;;;;;;4896186;29;20684;-80
2023/09/05 00:49:22;;;;;;;0.70;0.70;;;;;;;;;;4896353;29;20211;-80
2023/09/05 00:51:52;;;;;;;0.30;0.30;;;;;;;;;;4896362;29;20205;-81
2023/09/05 00:54:19;;;;;;;0.53;0.53;;;;;;;;;;4896338;29;20591;-81
2023/09/05 00:56:47;;;;;;;0.70;0.70;;;;;;;;;;4895718;29;20209;-81
2023/09/05 00:59:14;;;;;;;0.50;0.50;;;;;;;;;;4896170;29;20280;-82
2023/09/05 01:01:41;;;;;;;1.30;0.40;;;;;;;;;;4895553;29;20216;-83
2023/09/05 01:04:08;;;;;;;0.60;0.60;;;;;;;;;;4896360;29;20287;-82
2023/09/05 01:06:39;;;;;;;0.50;0.50;;;;;;;;;;4897084;29;20209;-82
2023/09/05 01:09:25;;;;;;;0.60;0.60;;;;;;;;;;4859943;29;20222;-81
2023/09/05 01:11:52;;;;;;;0.60;0.60;;;;;;;;;;4859086;29;20217;-81
2023/09/05 01:14:20;;;;;;;0.53;0.53;;;;;;;;;;4859240;29;20202;-82
2023/09/05 01:17:05;;;;;;;0.70;0.70;;;;;;;;;;4858720;29;20365;-83
2023/09/05 01:19:34;;;;;;;1.10;0.73;;;;;;;;;;4858648;29;20289;-82
2023/09/05 01:22:06;;;;;;;0.60;0.60;;;;;;;;;;4858889;29;20225;-82
2023/09/05 01:24:38;;;;;;;0.93;0.60;;;;;;;;;;4858742;29;20287;-82
2023/09/05 01:27:05;;;;;;;0.90;0.90;;;;;;;;;;4858037;29;20298;-81
2023/09/05 01:29:39;;;;;;;1.30;0.70;;;;;;;;;;4859568;29;20263;-80
2023/09/05 01:32:06;;;;;;;0.70;0.70;;;;;;;;;;4857624;29;20758;-81
2023/09/05 01:34:33;;;;;;;0.80;0.80;;;;;;;;;;4859045;29;20629;-83
2023/09/05 01:37:01;;;;;;;0.80;0.80;;;;;;;;;;4864367;29;20211;-81
2023/09/05 01:39:28;;;;;;;0.73;0.73;;;;;;;;;;4895765;29;20231;-81
2023/09/05 01:41:58;;;;;;;0.80;0.80;;;;;;;;;;4877202;29;20213;-81
2023/09/05 01:44:25;;;;;;;1.10;1.10;;;;;;;;;;4876991;29;20213;-82
2023/09/05 01:46:53;;;;;;;0.70;0.70;;;;;;;;;;4876546;29;20219;-81
2023/09/05 01:49:20;;;;;;;0.97;0.60;;;;;;;;;;4876841;29;20294;-82
2023/09/05 01:51:48;;;;;;;0.93;0.67;;;;;;;;;;4873107;29;20213;-81
2023/09/05 01:54:15;;;;;;;0.60;0.60;;;;;;;;;;4876003;29;20245;-83
2023/09/05 01:56:45;;;;;;;1.20;1.20;;;;;;;;;;4876719;29;20659;-81
2023/09/05 01:59:15;;;;;;;0.70;0.70;;;;;;;;;;4876618;29;20209;-83
2023/09/05 02:01:42;;;;;;;2.30;0.90;;;;;;;;;;4876878;29;20282;-81
2023/09/05 02:04:10;;;;;;;3.20;0.90;;;;;;;;;;4876483;29;20224;-81
2023/09/05 02:06:37;;;;;;;1.77;1.67;;;;;;;;;;4877236;29;20202;-81
2023/09/05 02:09:05;;;;;;;1.00;1.00;;;;;;;;;;4876186;29;20235;-81
2023/09/05 02:11:33;;;;;;;1.67;1.27;;;;;;;;;;4876540;29;20206;-82
2023/09/05 02:14:01;;;;;;;1.83;1.47;;;;;;;;;;4875600;29;20230;-81
2023/09/05 02:16:30;;;;;;;2.57;1.57;;;;;;;;;;4875733;29;20221;-81
2023/09/05 02:18:57;;;;;;;1.53;1.43;;;;;;;;;;4875996;29;20238;-81
2023/09/05 02:21:26;;;;;;;3.03;1.50;;;;;;;;;;4876376;29;20210;-81
2023/09/05 02:23:53;;;;;;;1.60;1.50;;;;;;;;;;4876953;29;20285;-81
2023/09/05 02:26:21;;;;;;;1.33;1.33;;;;;;;;;;4876676;29;20205;-82
2023/09/05 02:28:48;;;;;;;1.63;1.40;;;;;;;;;;4877620;29;20679;-81
2023/09/05 02:31:16;;;;;;;2.13;2.03;;;;;;;;;;4878710;29;20799;-81
2023/09/05 02:33:44;;;;;;;2.00;1.80;;;;;;;;;;4877586;29;20242;-81
2023/09/05 02:36:15;;;;;;;2.33;2.10;;;;;;;;;;4878436;29;20207;-81
2023/09/05 02:38:42;;;;;;;1.90;1.80;;;;;;;;;;4877781;29;20224;-81
2023/09/05 02:41:12;;;;;;;1.43;1.33;;;;;;;;;;4876892;29;20545;-81
2023/09/05 02:43:41;;;;;;;2.27;2.17;;;;;;;;;;4876074;29;20208;-81
2023/09/05 02:46:09;;;;;;;1.73;1.63;;;;;;;;;;4876093;29;20214;-81
2023/09/05 02:48:39;;;;;;;1.93;1.70;;;;;;;;;;4877225;29;20288;-82
2023/09/05 02:51:09;;;;;;;1.97;1.87;;;;;;;;;;4875948;29;20296;-80
2023/09/05 02:53:35;;;;;;;1.97;1.87;;;;;;;;;;4876184;29;20309;-81
2023/09/05 02:56:02;;;;;;;2.50;2.00;;;;;;;;;;4875335;29;20210;-81
2023/09/05 02:58:31;;;;;;;2.77;2.50;;;;;;;;;;4875141;29;20205;-81
2023/09/05 03:00:59;;;;;;;4.20;1.80;;;;;;;;;;4876239;29;20285;-81
2023/09/05 03:03:27;;;;;;;1.67;1.60;;;;;;;;;;4875198;29;20202;-82
2023/09/05 03:05:54;;;;;;;2.03;1.93;;;;;;;;;;4875978;29;20261;-82
2023/09/05 03:08:27;;;;;;;2.30;2.10;;;;;;;;;;4875935;29;20289;-83
2023/09/05 03:10:58;;;;;;;2.23;2.13;;;;;;;;;;4875632;29;20232;-80
2023/09/05 03:13:26;;;;;;;2.40;2.00;;;;;;;;;;4874891;29;20236;-81
2023/09/05 03:15:55;;;;;;;2.60;2.37;;;;;;;;;;4858987;29;20207;-82
2023/09/05 03:18:25;;;;;;;2.53;2.30;;;;;;;;;;4875931;29;20209;-81
2023/09/05 03:20:52;;;;;;;3.03;2.80;;;;;;;;;;4876468;29;20589;-81
2023/09/05 03:23:22;;;;;;;3.83;2.70;;;;;;;;;;4876565;29;20282;-81
2023/09/05 03:25:51;;;;;;;2.83;2.43;;;;;;;;;;4875956;29;20309;-81
2023/09/05 03:28:19;;;;;;;3.67;2.73;;;;;;;;;;4876237;29;20210;-81
2023/09/05 03:30:47;;;;;;;3.20;2.33;;;;;;;;;;4879413;29;20212;-82
2023/09/05 03:33:18;;;;;;;2.87;2.60;;;;;;;;;;4859166;29;20245;-82
2023/09/05 03:35:46;;;;;;;3.43;2.27;;;;;;;;;;4857962;29;20246;-83
2023/09/05 03:38:13;;;;;;;2.50;2.30;;;;;;;;;;4857428;29;20212;-81
2023/09/05 03:40:41;;;;;;;2.20;2.10;;;;;;;;;;4856206;29;20206;-80
2023/09/05 03:43:11;;;;;;;2.80;2.57;;;;;;;;;;4857406;29;20210;-81
2023/09/05 03:45:38;;;;;;;2.20;1.90;;;;;;;;;;4857290;29;20220;-81
2023/09/05 03:48:06;;;;;;;3.83;2.53;;;;;;;;;;4856306;29;20645;-81
2023/09/05 03:50:32;;;;;;;3.23;2.87;;;;;;;;;;4857983;29;20203;-81
2023/09/05 03:52:59;;;;;;;4.70;2.63;;;;;;;;;;4856726;29;20242;-81
2023/09/05 03:55:26;;;;;;;3.27;2.53;;;;;;;;;;4856195;29;20211;-81
2023/09/05 03:57:54;;;;;;;2.93;2.30;;;;;;;;;;4856954;29;20292;-82
2023/09/05 04:00:23;;;;;;;3.53;2.80;;;;;;;;;;4856909;29;20469;-82
2023/09/05 04:02:51;;;;;;;2.70;2.50;;;;;;;;;;4855549;29;20288;-81
2023/09/05 04:05:18;;;;;;;2.80;2.30;;;;;;;;;;4856456;29;20212;-81
2023/09/05 04:07:46;;;;;;;2.97;2.77;;;;;;;;;;4856647;29;20435;-82
2023/09/05 04:10:15;;;;;;;3.37;3.10;;;;;;;;;;4855687;29;20233;-81
2023/09/05 04:12:42;;;;;;;3.33;3.03;;;;;;;;;;4856205;29;20204;-81
2023/09/05 04:15:09;;;;;;;6.20;3.53;;;;;;;;;;4856462;29;20212;-81
2023/09/05 04:17:38;;;;;;;6.53;3.30;;;;;;;;;;4856581;29;20306;-81
2023/09/05 04:20:07;;;;;;;3.60;3.30;;;;;;;;;;4858217;29;20644;-82
2023/09/05 04:22:35;;;;;;;4.10;3.40;;;;;;;;;;4860216;29;20249;-81
2023/09/05 04:25:02;;;;;;;4.37;3.80;;;;;;;;;;4859202;29;20212;-81
2023/09/05 04:27:29;;;;;;;6.10;3.77;;;;;;;;;;4860249;29;20212;-80
2023/09/05 04:29:57;;;;;;;6.43;3.70;;;;;;;;;;4859373;29;20219;-81
2023/09/05 04:32:28;;;;;;;6.65;5.10;;;;;;;;;;4883348;29;20793;-81
2023/09/05 04:34:56;;;;;;;4.50;4.13;;;;;;;;;;4896401;29;20238;-81
2023/09/05 04:37:24;;;;;;;4.93;4.40;;;;;;;;;;4895562;29;20241;-81
2023/09/05 04:39:51;;;;;;;5.22;4.10;;;;;;;;;;4896170;29;20292;-81
2023/09/05 04:42:19;;;;;;;6.05;4.32;;;;;;;;;;4897256;29;20205;-81
2023/09/05 04:44:46;;;;;;;4.30;3.65;;;;;;;;;;4895916;29;20646;-82
2023/09/05 04:47:21;;;;;;;4.53;4.07;;;;;;;;;;4885993;29;20748;-81
2023/09/05 04:49:49;;;;;;;5.55;4.53;;;;;;;;;;4877004;29;20207;-82
2023/09/05 04:52:20;;;;;;;6.67;3.87;;;;;;;;;;4868480;29;20244;-81
2023/09/05 04:54:51;;;;;;;3.90;3.60;;;;;;;;;;4869626;29;20233;-83
2023/09/05 04:57:18;;;;;;;8.40;4.13;;;;;;;;;;4869966;29;20209;-82
2023/09/05 04:59:48;;;;;;;4.82;3.90;;;;;;;;;;4868723;29;20213;-81
2023/09/05 05:02:16;;;;;;;7.07;4.80;;;;;;;;;;4866766;29;20599;-81
2023/09/05 05:04:44;;;;;;;4.10;3.80;;;;;;;;;;4877980;29;20254;-82
2023/09/05 05:07:11;;;;;;;9.33;4.80;;;;;;;;;;4877892;29;20207;-83
2023/09/05 05:09:42;;;;;;;5.82;4.55;;;;;;;;;;4875824;29;20233;-82
2023/09/05 05:12:11;;;;;;;5.90;4.20;;;;;;;;;;4878550;29;20222;-82
2023/09/05 05:14:40;;;;;;;5.80;3.85;;;;;;;;;;4876618;29;20622;-81
2023/09/05 05:17:07;;;;;;;6.73;4.23;;;;;;;;;;4876202;29;20219;-82
2023/09/05 05:19:35;;;;;;;8.63;4.37;;;;;;;;;;4876540;29;20702;-82
2023/09/05 05:22:02;;;;;;;6.93;4.70;;;;;;;;;;4877141;29;20210;-81
2023/09/05 05:24:30;;;;;;;6.50;4.17;;;;;;;;;;4876707;29;20203;-82
2023/09/05 05:26:59;;;;;;;5.87;4.63;;;;;;;;;;4876727;29;20239;-82
2023/09/05 05:29:31;;;;;;;4.80;4.40;;;;;;;;;;4876962;29;20204;-83
2023/09/05 05:31:59;;;;;;;9.53;4.83;;;;;;;;;;4878944;29;20243;-82
2023/09/05 05:34:26;;;;;;;6.33;4.83;;;;;;;;;;4895311;29;20739;-81
2023/09/05 05:36:53;;;;;;;7.00;5.20;;;;;;;;;;4896859;29;20230;-82
2023/09/05 05:39:24;;;;;;;6.97;4.95;;;;;;;;;;4895869;29;20215;-82
2023/09/05 05:41:51;;;;;;;8.95;4.82;;;;;;;;;;4896154;29;20379;-82
2023/09/05 05:44:22;;;;;;;6.63;5.00;;;;;;;;;;4901803;29;20204;-81
2023/09/05 05:46:48;;;;;;;13.93;5.60;;;;;;;;;;4898565;29;20324;-81
2023/09/05 05:49:17;;;;;;;8.68;5.22;;;;;;;;;;4895323;29;20226;-82
2023/09/05 05:51:47;;;;;;;5.20;4.72;;;;;;;;;;4895808;29;20243;-82
2023/09/05 05:54:13;;;;;;;7.05;5.28;;;;;;;;;;4894708;29;20242;-81
2023/09/05 05:56:43;;;;;;;10.07;5.57;;;;;;;;;;4899754;29;20283;-82
2023/09/05 05:59:10;;;;;;;7.38;4.68;;;;;;;;;;4896117;29;20276;-82
2023/09/05 06:01:39;;;;;;;11.13;4.35;;;;;;;;;;4893209;29;20213;-82
2023/09/05 06:04:08;;;;;;;5.73;4.40;;;;;;;;;;4895229;29;20206;-81
2023/09/05 06:06:38;;;;;;;7.05;5.63;;;;;;;;;;4894879;29;20720;-80
2023/09/05 06:09:04;;;;;;;7.70;5.57;;;;;;;;;;4893706;29;20356;-82
2023/09/05 06:11:32;;;;;;;5.72;4.80;;;;;;;;;;4895111;29;20259;-82
2023/09/05 06:14:01;;;;;;;7.28;5.10;;;;;;;;;;4895005;29;20240;-83
2023/09/05 06:16:32;;;;;;;6.25;4.95;;;;;;;;;;4893647;29;20199;-82
2023/09/05 06:19:01;;;;;;;8.68;5.38;;;;;;;;;;4894465;29;20303;-81
2023/09/05 06:21:29;;;;;;;5.80;4.28;;;;;;;;;;4894679;29;20204;-83
2023/09/05 06:23:58;;;;;;;5.82;4.45;;;;;;;;;;4894656;29;20203;-82
2023/09/05 06:26:25;;;;;;;7.35;5.03;;;;;;;;;;4896068;29;20207;-81
2023/09/05 06:28:54;;;;;;;7.63;5.72;;;;;;;;;;4895589;29;20210;-83
2023/09/05 06:31:22;;;;;;;10.98;5.38;;;;;;;;;;4893686;29;20319;-81
2023/09/05 06:33:50;;;;;;;8.95;5.85;;;;;;;;;;4888418;29;20314;-81
2023/09/05 06:36:23;;;;;;;7.90;5.13;;;;;;;;;;4876224;29;20215;-83
2023/09/05 06:38:51;;;;;;;7.38;4.38;;;;;;;;;;4874631;29;20706;-82
2023/09/05 06:41:20;;;;;;;7.22;5.00;;;;;;;;;;4874416;29;20220;-82
2023/09/05 06:43:47;;;;;;;7.45;5.43;;;;;;;;;;4874876;29;20232;-82
2023/09/05 06:46:15;;;;;;;8.80;5.93;;;;;;;;;;4873707;29;20694;-82
2023/09/05 06:48:46;;;;;;;6.50;5.07;;;;;;;;;;4875822;29;20273;-83
2023/09/05 06:51:14;;;;;;;5.85;4.55;;;;;;;;;;4875892;29;20295;-81
2023/09/05 06:53:43;;;;;;;5.55;4.28;;;;;;;;;;4874985;29;20648;-81
2023/09/05 06:56:09;;;;;;;7.10;5.18;;;;;;;;;;4875510;29;20704;-83
2023/09/05 06:58:37;;;;;;;9.33;4.87;;;;;;;;;;4875489;29;20660;-83
2023/09/05 07:01:07;;;;;;;5.80;4.77;;;;;;;;;;4873897;29;20709;-82
2023/09/05 07:03:33;;;;;;;6.13;4.90;;;;;;;;;;4876060;29;20208;-81
2023/09/05 07:06:03;;;;;;;7.75;4.95;;;;;;;;;;4880475;29;20596;-83
2023/09/05 07:08:29;;;;;;;7.70;5.40;;;;;;;;;;4878654;29;20451;-83
2023/09/05 07:10:59;;;;;;;8.98;5.13;;;;;;;;;;4875327;29;20305;-82
2023/09/05 07:13:28;;;;;;;6.85;4.63;;;;;;;;;;4875265;29;20233;-81
2023/09/05 07:15:56;;;;;;;5.80;4.53;;;;;;;;;;4874318;29;20246;-82
2023/09/05 07:18:24;;;;;;;4.75;4.35;;;;;;;;;;4878343;29;20376;-83
2023/09/05 07:20:51;;;;;;;5.35;4.95;;;;;;;;;;4894245;29;20197;-82
2023/09/05 07:23:18;;;;;;;6.82;5.43;;;;;;;;;;4887624;29;20587;-83
2023/09/05 07:25:46;;;;;;;5.15;4.68;;;;;;;;;;4874621;29;20649;-82
2023/09/05 07:28:19;;;;;;;5.68;4.30;;;;;;;;;;4874812;29;20490;-81
2023/09/05 07:30:46;;;;;;;11.68;4.82;;;;;;;;;;4874122;29;20210;-81
2023/09/05 07:33:15;;;;;;;5.85;4.30;;;;;;;;;;4855635;29;20211;-81
2023/09/05 07:35:44;;;;;;;4.63;4.22;;;;;;;;;;4855841;29;20244;-81
2023/09/05 07:38:12;;;;;;;5.20;3.67;;;;;;;;;;4856068;29;20215;-82
2023/09/05 07:40:40;;;;;;;6.53;5.78;;;;;;;;;;4855846;29;20331;-83
2023/09/05 07:43:08;;;;;;;4.90;4.38;;;;;;;;;;4855843;29;20216;-82
2023/09/05 07:45:37;;;;;;;7.60;4.40;;;;;;;;;;4855915;29;20215;-81
2023/09/05 07:48:07;;;;;;;6.30;4.85;;;;;;;;;;4856362;29;20613;-82
2023/09/05 07:50:36;;;;;;;5.47;4.05;;;;;;;;;;4856389;29;20642;-82
2023/09/05 07:53:03;;;;;;;4.35;3.95;;;;;;;;;;4856634;29;20208;-83
2023/09/05 07:55:31;;;;;;;6.18;4.45;;;;;;;;;;4860195;29;20743;-81
2023/09/05 07:57:58;;;;;;;7.18;5.13;;;;;;;;;;4859957;29;20208;-81
2023/09/05 08:00:27;;;;;;;5.80;4.65;;;;;;;;;;4856748;29;20326;-82
2023/09/05 08:02:58;;;;;;;6.05;4.80;;;;;;;;;;4858832;29;20240;-83
2023/09/05 08:05:26;;;;;;;6.90;4.93;;;;;;;;;;4858099;29;20684;-83
2023/09/05 08:07:57;;;;;;;6.40;4.68;;;;;;;;;;4858748;29;20236;-83
2023/09/05 08:10:26;;;;;;;5.38;4.88;;;;;;;;;;4857295;29;20292;-83
2023/09/05 08:12:57;;;;;;;5.38;4.45;;;;;;;;;;4857691;29;20261;-83
2023/09/05 08:15:25;;;;;;;4.53;4.18;;;;;;;;;;4858274;29;20242;-85
2023/09/05 08:17:53;;;;;;;6.88;5.00;;;;;;;;;;4858584;29;20259;-84
2023/09/05 08:20:22;;;;;;;4.18;3.78;;;;;;;;;;4847460;29;20308;-85
2023/09/05 08:22:50;;;;;;;7.03;4.50;;;;;;;;;;4853953;29;20256;-83
2023/09/05 08:25:23;;;;;;;5.22;4.53;;;;;;;;;;4858205;29;20255;-84
2023/09/05 08:27:53;;;;;;;9.20;5.30;;;;;;;;;;4857906;29;20257;-84
2023/09/05 08:30:24;;;;;;;4.60;4.22;;;;;;;;;;4857256;29;20235;-83
2023/09/05 08:32:52;;;;;;;4.88;4.38;;;;;;;;;;4873712;29;20740;-82
2023/09/05 08:35:21;;;;;;;5.28;4.80;;;;;;;;;;4874786;29;20239;-81
2023/09/05 08:37:49;;;;;;;4.45;4.07;;;;;;;;;;4876689;29;20326;-81
2023/09/05 08:40:18;;;;;;;5.07;4.30;;;;;;;;;;4876282;29;20236;-82
2023/09/05 08:42:47;;;;;;;3.95;3.65;;;;;;;;;;4876127;29;20699;-83
2023/09/05 08:45:17;;;;;;;7.78;4.22;;;;;;;;;;4874659;29;20255;-82
2023/09/05 08:47:46;;;;;;;4.53;4.07;;;;;;;;;;4875588;29;20238;-82
2023/09/05 08:50:13;;;;;;;5.28;4.05;;;;;;;;;;4875389;29;20243;-82
2023/09/05 08:52:45;;;;;;;3.85;3.65;;;;;;;;;;4875632;29;20789;-82
2023/09/05 08:55:15;;;;;;;6.97;4.78;;;;;;;;;;4875247;29;20271;-82
2023/09/05 08:57:45;;;;;;;4.03;3.72;;;;;;;;;;4874972;29;20236;-83
2023/09/05 09:00:17;;;;;;;6.35;4.22;;;;;;;;;;4876105;29;20231;-83
2023/09/05 09:02:48;;;;;;;5.00;4.50;;;;;;;;;;4875929;29;20296;-83
2023/09/05 09:05:17;;;;;;;4.05;3.70;;;;;;;;;;4874900;29;20233;-82
2023/09/05 09:07:47;;;;;;;4.95;4.53;;;;;;;;;;4876068;29;20291;-83
2023/09/05 09:10:21;;;;;;;7.28;4.65;;;;;;;;;;4875830;29;20602;-82
2023/09/05 09:12:54;;;;;;;4.43;4.03;;;;;;;;;;4876300;29;20235;-83
2023/09/05 09:15:24;;;;;;;4.45;4.07;;;;;;;;;;4874690;29;20255;-84
2023/09/05 09:17:53;;;;;;;4.78;4.28;;;;;;;;;;4875871;29;20628;-82
2023/09/05 09:20:23;;;;;;;4.53;3.67;;;;;;;;;;4875903;29;20693;-82
2023/09/05 09:22:50;;;;;;;4.97;3.85;;;;;;;;;;4876086;29;20719;-82
2023/09/05 09:25:23;;;;;;;3.90;3.60;;;;;;;;;;4873093;29;20239;-83
2023/09/05 09:27:55;;;;;;;4.60;3.80;;;;;;;;;;4875725;29;20233;-82
2023/09/05 09:30:31;;;;;;;5.63;3.88;;;;;;;;;;4873844;29;20236;-83
2023/09/05 09:33:04;;;;;;;4.88;3.00;;;;;;;;;;4875588;29;20254;-82
2023/09/05 09:35:36;;;;;;;3.13;2.92;;;;;;;;;;4874709;29;20264;-83
2023/09/05 09:38:04;;;;;;;3.40;3.10;;;;;;;;;;4873251;29;20293;-83
2023/09/05 09:40:49;;;;;;;2.83;2.63;;;;;;;;;;4873206;29;20248;-83
2023/09/05 09:43:19;;;;;;;3.05;2.85;;;;;;;;;;4872869;29;20236;-83
2023/09/05 09:45:46;;;;;;;2.75;2.65;;;;;;;;;;4873096;29;20735;-82
2023/09/05 09:48:15;;;;;;;2.30;2.20;;;;;;;;;;4875435;29;20325;-82
2023/09/05 09:50:43;;;;;;;9.18;2.20;;;;;;;;;;4873786;29;20247;-83
2023/09/05 09:53:15;;;;;;;2.65;2.55;;;;;;;;;;4873917;29;20609;-82
2023/09/05 09:55:44;;;;;;;3.00;2.78;;;;;;;;;;4874306;29;20247;-81
2023/09/05 09:58:14;;;;;;;2.72;2.63;;;;;;;;;;4872998;29;20235;-81
2023/09/05 10:00:50;;;;;;;3.00;2.80;;;;;;;;;;4874238;29;20765;-82
2023/09/05 10:03:22;;;;;;;3.55;3.33;;;;;;;;;;4874886;29;20708;-82
2023/09/05 10:05:49;;;;;;;2.90;2.70;;;;;;;;;;4874316;29;20265;-83
2023/09/05 10:08:17;;;;;;;2.50;2.40;;;;;;;;;;4875313;29;20245;-83
2023/09/05 10:10:47;;;;;;;2.75;2.55;;;;;;;;;;4873868;29;20289;-83
2023/09/05 10:13:16;;;;;;;2.97;2.78;;;;;;;;;;4875038;29;20225;-83
2023/09/05 10:15:45;;;;;;;2.63;2.45;;;;;;;;;;4873193;29;20249;-83
2023/09/05 10:18:13;;;;;;;2.30;2.20;;;;;;;;;;4874430;29;20229;-84
2023/09/05 10:20:42;;;;;;;2.58;2.38;;;;;;;;;;4874956;29;20604;-81
2023/09/05 10:23:12;;;;;;;2.22;2.13;;;;;;;;;;4873590;29;20310;-85
2023/09/05 10:25:41;;;;;;;14.80;2.10;;;;;;;;;;4875749;29;20222;-82
2023/09/05 10:28:10;;;;;;;2.65;2.38;;;;;;;;;;4871642;29;20241;-84
2023/09/05 10:30:41;;;;;;;5.38;2.05;;;;;;;;;;4874506;29;20296;-83
2023/09/05 10:33:11;;;;;;;2.58;2.30;;;;;;;;;;4872773;29;20667;-83
2023/09/05 10:35:42;;;;;;;2.30;2.20;;;;;;;;;;4874318;29;20324;-84
2023/09/05 10:38:12;;;;;;;2.90;2.72;;;;;;;;;;4872370;29;20245;-83
2023/09/05 10:40:41;;;;;;;2.40;2.30;;;;;;;;;;4873633;29;20233;-82
2023/09/05 10:43:09;;;;;;;2.55;2.33;;;;;;;;;;4873039;29;20304;-82
2023/09/05 10:45:40;;;;;;;2.72;2.10;;;;;;;;;;4873663;29;20269;-82
2023/09/05 10:48:16;;;;;;;2.30;2.10;;;;;;;;;;4873277;29;20331;-83
2023/09/05 10:51:11;;;;;;;2.63;2.53;;;;;;;;;;4873095;29;20281;-83
2023/09/05 10:53:40;;;;;;;2.45;2.35;;;;;;;;;;4832071;29;20249;-84
2023/09/05 10:56:30;;;;;;;2.72;2.53;;;;;;;;;;4872815;29;20244;-85
2023/09/05 10:59:00;;;;;;;2.30;2.20;;;;;;;;;;4869347;29;20601;-83
2023/09/05 11:01:54;;;;;;;3.80;2.50;;;;;;;;;;4873101;29;20313;-83
2023/09/05 11:04:25;;;;;;;2.72;2.53;;;;;;;;;;4865625;29;20237;-85
2023/09/05 11:06:58;;;;;;;2.03;1.92;;;;;;;;;;4873151;29;20234;-83
2023/09/05 11:09:25;;;;;;;2.75;2.58;;;;;;;;;;4874230;29;20694;-84
2023/09/05 11:11:54;;;;;;;2.40;2.30;;;;;;;;;;4872826;29;20288;-83
2023/09/05 11:14:34;;;;;;;3.63;2.28;;;;;;;;;;4873362;29;20240;-84
2023/09/05 11:17:03;;;;;;;2.70;2.50;;;;;;;;;;4873825;29;20255;-84
2023/09/05 11:19:35;;;;;;;6.80;2.80;;;;;;;;;;4874548;29;20237;-83
2023/09/05 11:22:07;;;;;;;2.65;2.50;;;;;;;;;;4874337;29;20237;-83
2023/09/05 11:24:35;;;;;;;2.38;2.28;;;;;;;;;;4874513;29;20233;-82
2023/09/05 11:27:07;;;;;;;2.38;2.28;;;;;;;;;;4873697;29;20256;-83
2023/09/05 11:29:39;;;;;;;2.13;1.92;;;;;;;;;;4875882;29;20221;-83
2023/09/05 11:32:09;;;;;;;3.28;2.42;;;;;;;;;;4877394;29;20300;-85
2023/09/05 11:34:39;;;;;;;2.20;2.10;;;;;;;;;;4876604;29;20329;-85
2023/09/05 11:37:06;;;;;;;2.20;2.10;;;;;;;;;;4876411;29;20604;-83
2023/09/05 11:39:34;;;;;;;1.90;1.80;;;;;;;;;;4877623;29;20727;-82
2023/09/05 11:42:04;;;;;;;2.15;2.05;;;;;;;;;;4874467;29;20333;-83
2023/09/05 11:44:38;;;;;;;2.05;1.95;;;;;;;;;;4876900;29;20289;-83
2023/09/05 11:47:07;;;;;;;2.05;1.95;;;;;;;;;;4878395;29;20634;-83
2023/09/05 11:49:36;;;;;;;2.83;2.63;;;;;;;;;;4884223;29;20229;-82
2023/09/05 11:52:04;;;;;;;2.42;2.17;;;;;;;;;;4887016;29;20735;-82
2023/09/05 11:54:32;;;;;;;2.78;2.67;;;;;;;;;;4876034;29;20743;-84
2023/09/05 11:57:04;;;;;;;2.70;2.50;;;;;;;;;;4878030;29;20248;-82
2023/09/05 11:59:34;;;;;;;2.20;2.10;;;;;;;;;;4876733;29;20237;-83
2023/09/05 12:02:09;;;;;;;5.85;2.38;;;;;;;;;;4877691;29;20245;-83
2023/09/05 12:04:37;;;;;;;2.25;2.15;;;;;;;;;;4876930;29;20388;-83
2023/09/05 12:07:09;;;;;;;2.20;2.10;;;;;;;;;;4877594;29;20325;-84
2023/09/05 12:09:37;;;;;;;2.72;2.22;;;;;;;;;;4876219;29;20225;-84
2023/09/05 12:12:10;;;;;;;2.70;2.50;;;;;;;;;;4877261;29;20301;-83
2023/09/05 12:14:54;;;;;;;2.20;2.10;;;;;;;;;;4877480;29;20316;-84
2023/09/05 12:17:24;;;;;;;2.65;2.20;;;;;;;;;;4876578;29;20249;-83
2023/09/05 12:19:53;;;;;;;1.88;1.73;;;;;;;;;;4879052;29;20701;-82
2023/09/05 12:22:27;;;;;;;2.65;1.88;;;;;;;;;;4862761;29;20310;-83
2023/09/05 12:25:15;;;;;;;2.85;2.40;;;;;;;;;;4872751;29;20237;-84
2023/09/05 12:27:43;;;;;;;2.33;2.22;;;;;;;;;;4877000;29;20233;-83
2023/09/05 12:30:28;;;;;;;2.55;2.35;;;;;;;;;;4879957;29;20229;-82
2023/09/05 12:32:59;;;;;;;1.48;1.48;;;;;;;;;;4877893;29;20241;-82
2023/09/05 12:35:28;;;;;;;4.63;2.13;;;;;;;;;;4878103;29;20237;-82
2023/09/05 12:37:56;;;;;;;1.92;1.83;;;;;;;;;;4882335;29;20316;-82
2023/09/05 12:40:24;;;;;;;3.17;2.40;;;;;;;;;;4877537;29;20229;-83
2023/09/05 12:42:51;;;;;;;2.40;2.30;;;;;;;;;;4880366;29;20324;-83
2023/09/05 12:45:19;;;;;;;2.97;2.33;;;;;;;;;;4884191;29;20718;-82
2023/09/05 12:47:51;;;;;;;2.30;2.20;;;;;;;;;;4881496;29;20283;-83
2023/09/05 12:50:25;;;;;;;2.28;2.08;;;;;;;;;;4881695;29;20255;-84
2023/09/05 12:52:52;;;;;;;3.10;1.75;;;;;;;;;;4877333;29;20679;-85
2023/09/05 12:55:19;;;;;;;1.92;1.83;;;;;;;;;;4876056;29;20234;-83
2023/09/05 12:57:48;;;;;;;1.88;1.75;;;;;;;;;;4875707;29;20241;-84
2023/09/05 13:00:18;;;;;;;3.28;1.90;;;;;;;;;;4876125;29;20236;-82
2023/09/05 13:02:46;;;;;;;2.55;2.00;;;;;;;;;;4875390;29;20229;-84
2023/09/05 13:05:14;;;;;;;2.00;1.90;;;;;;;;;;4875703;29;20289;-83
2023/09/05 13:07:47;;;;;;;1.77;1.67;;;;;;;;;;4876514;29;20225;-84
2023/09/05 13:10:13;;;;;;;9.57;2.03;;;;;;;;;;4874677;29;20320;-82
2023/09/05 13:12:40;;;;;;;2.97;1.63;;;;;;;;;;4875055;29;20328;-83
2023/09/05 13:15:09;;;;;;;1.60;1.60;;;;;;;;;;4875553;29;20226;-82
2023/09/05 13:17:36;;;;;;;2.03;1.77;;;;;;;;;;4890215;29;20279;-83
2023/09/05 13:20:05;;;;;;;1.50;1.40;;;;;;;;;;4893734;29;20628;-84
2023/09/05 13:22:31;;;;;;;1.88;1.75;;;;;;;;;;4894068;29;20244;-84
2023/09/05 13:25:01;;;;;;;2.28;2.17;;;;;;;;;;4893851;29;20224;-83
2023/09/05 13:27:29;;;;;;;1.88;1.77;;;;;;;;;;4892895;29;20778;-83
2023/09/05 13:29:58;;;;;;;1.80;1.70;;;;;;;;;;4894161;29;20280;-84
2023/09/05 13:32:27;;;;;;;1.60;1.60;;;;;;;;;;4893744;29;20244;-82
2023/09/05 13:34:57;;;;;;;1.88;1.88;;;;;;;;;;4893856;29;20667;-83
2023/09/05 13:37:26;;;;;;;2.08;1.98;;;;;;;;;;4888537;29;20291;-82
2023/09/05 13:39:55;;;;;;;1.63;1.52;;;;;;;;;;4893915;29;20634;-83
2023/09/05 13:42:24;;;;;;;1.73;1.63;;;;;;;;;;4889336;29;20613;-82
2023/09/05 13:44:53;;;;;;;3.47;1.77;;;;;;;;;;4893234;29;20225;-84
2023/09/05 13:47:26;;;;;;;1.73;1.70;;;;;;;;;;4878137;29;20321;-82
2023/09/05 13:49:53;;;;;;;1.70;1.60;;;;;;;;;;4874951;29;20328;-82
2023/09/05 13:52:23;;;;;;;2.97;1.90;;;;;;;;;;4874106;29;20288;-81
2023/09/05 13:54:53;;;;;;;2.00;1.90;;;;;;;;;;4872256;29;20233;-82
2023/09/05 13:57:22;;;;;;;1.65;1.58;;;;;;;;;;4868156;29;20277;-82
2023/09/05 13:59:56;;;;;;;2.22;2.03;;;;;;;;;;4873851;29;20233;-82
2023/09/05 14:02:24;;;;;;;3.65;1.63;;;;;;;;;;4873662;29;20189;-82
2023/09/05 14:04:53;;;;;;;1.40;1.40;;;;;;;;;;4873956;29;20219;-82
2023/09/05 14:07:21;;;;;;;2.50;2.40;;;;;;;;;;4874380;29;20209;-82
2023/09/05 14:09:52;;;;;;;2.22;2.13;;;;;;;;;;4873741;29;20229;-82
2023/09/05 14:12:19;;;;;;;1.60;1.60;;;;;;;;;;4873412;29;20609;-82
2023/09/05 14:14:47;;;;;;;1.33;1.33;;;;;;;;;;4873422;29;20589;-83
2023/09/05 14:17:18;;;;;;;1.90;1.80;;;;;;;;;;4872625;29;20248;-83
2023/09/05 14:19:46;;;;;;;1.95;1.85;;;;;;;;;;4874204;29;20189;-82
2023/09/05 14:22:14;;;;;;;2.10;2.00;;;;;;;;;;4874591;29;20209;-82
2023/09/05 14:24:41;;;;;;;1.58;1.58;;;;;;;;;;4875565;29;20212;-83
2023/09/05 14:27:08;;;;;;;3.63;2.10;;;;;;;;;;4875454;29;20225;-83
2023/09/05 14:29:36;;;;;;;1.77;1.67;;;;;;;;;;4875960;29;20206;-82
2023/09/05 14:32:03;;;;;;;1.80;1.70;;;;;;;;;;4875153;29;20281;-83
2023/09/05 14:34:31;;;;;;;1.60;1.50;;;;;;;;;;4875696;29;20718;-83
2023/09/05 14:36:59;;;;;;;1.77;1.67;;;;;;;;;;4875891;29;20324;-82
2023/09/05 14:39:26;;;;;;;2.67;2.17;;;;;;;;;;4875299;29;20463;-83
2023/09/05 14:41:56;;;;;;;1.70;1.60;;;;;;;;;;4875743;29;20206;-82
2023/09/05 14:44:25;;;;;;;2.92;1.80;;;;;;;;;;4875905;29;20356;-83
2023/09/05 14:46:53;;;;;;;1.60;1.50;;;;;;;;;;4874909;29;20236;-81
2023/09/05 14:49:21;;;;;;;2.03;1.92;;;;;;;;;;4875650;29;20242;-82
2023/09/05 14:51:50;;;;;;;1.80;1.70;;;;;;;;;;4874753;29;20293;-83
2023/09/05 14:54:17;;;;;;;2.17;2.08;;;;;;;;;;4874630;29;20849;-82
2023/09/05 14:56:50;;;;;;;1.33;1.33;;;;;;;;;;4874798;29;20237;-82